createdAt,value
2023-10-20T00:02:19.207Z,98764.53
2023-10-20T00:04:58.909Z,98771.84
2023-10-20T00:07:39.197Z,98765.00
2023-10-20T00:10:19.235Z,98763.56
2023-10-20T00:13:01.623Z,98755.09
2023-10-20T00:15:41.235Z,98753.06
2023-10-20T00:18:20.907Z,98749.66
2023-10-20T00:21:00.571Z,98765.34
2023-10-20T00:23:40.046Z,98764.97
2023-10-20T00:26:19.779Z,98761.91
2023-10-20T00:28:59.359Z,98758.22
2023-10-20T00:31:39.957Z,98750.44
2023-10-20T00:34:19.620Z,98763.06
2023-10-20T00:36:59.162Z,98768.31
2023-10-20T00:39:38.891Z,98763.34
2023-10-20T00:42:18.621Z,98754.88
2023-10-20T00:44:58.137Z,98752.84
2023-10-20T00:47:41.393Z,98757.19
2023-10-20T00:50:21.759Z,98750.13
2023-10-20T00:53:02.678Z,98739.78
2023-10-20T00:55:43.033Z,98747.31
2023-10-20T00:58:22.991Z,98733.38
2023-10-20T01:01:05.649Z,98735.03
2023-10-20T01:03:45.767Z,98727.16
2023-10-20T01:06:26.565Z,98724.09
2023-10-20T01:09:14.096Z,98717.47
2023-10-20T01:11:54.276Z,98698.03
2023-10-20T01:14:34.363Z,98698.38
2023-10-20T01:17:13.981Z,98693.22
2023-10-20T01:19:55.355Z,98689.91
2023-10-20T01:22:36.196Z,98692.22
2023-10-20T01:25:18.042Z,98695.41
2023-10-20T01:27:57.723Z,98691.75
2023-10-20T01:30:37.327Z,98684.09
2023-10-20T01:33:19.459Z,98684.56
2023-10-20T01:36:01.147Z,98676.28
2023-10-20T01:38:40.767Z,98674.28
2023-10-20T01:41:25.631Z,98659.53
2023-10-20T01:44:05.329Z,98662.72
2023-10-20T01:46:50.844Z,98656.94
2023-10-20T01:49:30.410Z,98649.28
2023-10-20T01:52:10.184Z,98643.50
2023-10-20T01:54:52.555Z,98651.03
2023-10-20T01:57:32.109Z,98642.53
2023-10-20T02:00:15.114Z,98647.13
2023-10-20T02:02:55.032Z,98648.06
2023-10-20T02:08:14.711Z,98629.44
2023-10-20T02:10:54.373Z,98626.38
2023-10-20T02:13:36.571Z,98623.03
2023-10-20T02:16:16.885Z,98618.69
2023-10-20T02:19:00.439Z,98617.88
2023-10-20T02:21:40.387Z,98624.81
2023-10-20T02:24:20.012Z,98616.28
2023-10-20T02:27:00.061Z,98595.13
2023-10-20T02:29:39.744Z,98575.03
2023-10-20T02:32:19.333Z,98573.81
2023-10-20T02:34:58.893Z,98572.97
2023-10-20T02:37:38.665Z,98565.09
2023-10-20T02:40:18.379Z,98556.63
2023-10-20T02:42:57.961Z,98553.50
2023-10-20T02:45:39.810Z,98556.69
2023-10-20T02:48:19.770Z,98538.91
2023-10-20T02:50:59.347Z,98545.34
2023-10-20T02:53:41.873Z,98537.56
2023-10-20T02:56:24.884Z,98529.78
2023-10-20T02:59:05.305Z,98519.66
2023-10-20T03:01:47.331Z,98515.38
2023-10-20T03:04:27.107Z,98512.78
2023-10-20T03:07:06.750Z,98509.97
2023-10-20T03:09:46.316Z,98492.00
2023-10-20T03:12:25.930Z,98502.88
2023-10-20T03:15:07.848Z,98502.72
2023-10-20T03:17:47.618Z,98521.81
2023-10-20T03:20:31.625Z,98509.84
2023-10-20T03:23:11.288Z,98500.56
2023-10-20T03:25:51.089Z,98485.59
2023-10-20T03:28:30.812Z,98482.53
2023-10-20T03:31:10.446Z,98483.81
2023-10-20T03:33:50.147Z,98472.84
2023-10-20T03:36:29.845Z,98470.63
2023-10-20T03:39:21.942Z,98464.63
2023-10-20T03:42:03.807Z,98463.19
2023-10-20T03:44:44.865Z,98471.50
2023-10-20T03:47:30.538Z,98477.13
2023-10-20T03:50:20.910Z,98467.84
2023-10-20T03:52:59.758Z,98468.94
2023-10-20T03:55:39.264Z,98472.69
2023-10-20T03:58:21.531Z,98453.81
2023-10-20T04:01:05.013Z,98442.41
2023-10-20T04:03:50.991Z,98429.13
2023-10-20T04:06:30.300Z,98409.75
2023-10-20T04:09:11.055Z,98428.75
2023-10-20T04:11:51.148Z,98430.88
2023-10-20T04:14:31.548Z,98429.00
2023-10-20T04:17:10.958Z,98424.88
2023-10-20T04:19:50.869Z,98420.53
2023-10-20T04:22:31.193Z,98421.34
2023-10-20T04:25:14.143Z,98404.53
2023-10-20T04:28:02.361Z,98402.31
2023-10-20T04:31:00.748Z,98401.03
2023-10-20T04:33:59.252Z,98373.69
2023-10-20T04:36:58.777Z,98378.47
2023-10-20T04:39:57.494Z,98370.38
2023-10-20T04:42:36.993Z,98374.13
2023-10-20T04:45:27.383Z,98373.91
2023-10-20T04:48:45.150Z,98384.69
2023-10-20T04:51:43.476Z,98382.00
2023-10-20T04:54:45.768Z,98373.09
2023-10-20T04:57:25.433Z,98349.63
2023-10-20T05:00:25.657Z,98349.63
2023-10-20T05:03:05.892Z,98353.97
2023-10-20T05:05:54.773Z,98347.16
2023-10-20T05:08:34.402Z,98326.03
2023-10-20T05:11:14.035Z,98323.13
2023-10-20T05:13:56.627Z,98320.44
2023-10-20T05:16:36.314Z,98326.66
2023-10-20T05:19:16.101Z,98314.22
2023-10-20T05:21:56.812Z,98320.63
2023-10-20T05:24:36.451Z,98298.31
2023-10-20T05:27:16.183Z,98301.97
2023-10-20T05:29:56.038Z,98283.56
2023-10-20T05:32:36.376Z,98274.06
2023-10-20T05:35:16.010Z,98279.44
2023-10-20T05:37:56.400Z,98281.31
2023-10-20T05:40:40.629Z,98275.97
2023-10-20T05:43:20.255Z,98280.06
2023-10-20T05:45:59.908Z,98272.59
2023-10-20T05:48:39.898Z,98279.03
2023-10-20T05:51:19.943Z,98272.59
2023-10-20T05:53:59.604Z,98278.81
2023-10-20T05:56:39.793Z,98290.63
2023-10-20T05:59:19.240Z,98293.16
2023-10-20T06:02:00.923Z,98293.31
2023-10-20T06:04:40.586Z,98301.41
2023-10-20T06:07:23.124Z,98281.59
2023-10-20T06:10:02.762Z,98291.09
2023-10-20T06:12:42.516Z,98282.00
2023-10-20T06:15:23.090Z,98291.56
2023-10-20T06:18:02.804Z,98284.72
2023-10-20T06:20:43.056Z,98285.16
2023-10-20T06:23:23.917Z,98291.38
2023-10-20T06:26:03.604Z,98272.97
2023-10-20T06:28:47.012Z,98278.59
2023-10-20T06:31:30.119Z,98271.56
2023-10-20T06:34:13.203Z,98269.75
2023-10-20T06:37:10.076Z,98287.56
2023-10-20T06:39:49.782Z,98282.22
2023-10-20T06:42:30.010Z,98284.34
2023-10-20T06:45:11.721Z,98282.69
2023-10-20T06:47:51.856Z,98277.75
2023-10-20T06:50:33.400Z,98262.25
2023-10-20T06:53:15.457Z,98274.88
2023-10-20T06:56:13.948Z,98273.47
2023-10-20T06:58:42.789Z,98274.97
2023-10-20T07:01:22.525Z,98277.66
2023-10-20T07:04:07.910Z,98264.84
2023-10-20T07:06:47.666Z,98264.84
2023-10-20T07:09:27.967Z,98261.34
2023-10-20T07:12:14.713Z,98269.88
2023-10-20T07:14:50.825Z,98259.31
2023-10-20T07:17:30.627Z,98263.88
2023-10-20T07:20:10.945Z,98253.13
2023-10-20T07:22:50.484Z,98259.31
2023-10-20T07:25:30.162Z,98275.09
2023-10-20T07:28:09.759Z,98269.09
2023-10-20T07:30:49.978Z,98260.44
2023-10-20T07:33:33.255Z,98274.94
2023-10-20T07:36:12.868Z,98249.69
2023-10-20T07:38:52.535Z,98260.25
2023-10-20T07:41:32.113Z,98245.38
2023-10-20T07:44:20.214Z,98249.09
2023-10-20T07:46:59.762Z,98241.25
2023-10-20T07:49:40.574Z,98253.66
2023-10-20T07:52:20.751Z,98243.56
2023-10-20T07:55:00.448Z,98251.19
2023-10-20T07:57:40.106Z,98258.47
2023-10-20T08:00:20.155Z,98249.34
2023-10-20T08:03:00.208Z,98252.25
2023-10-20T08:05:41.647Z,98251.66
2023-10-20T08:08:20.988Z,98248.97
2023-10-20T08:11:00.876Z,98237.56
2023-10-20T08:13:42.631Z,98238.59
2023-10-20T08:16:23.383Z,98241.53
2023-10-20T08:19:03.211Z,98224.56
2023-10-20T08:21:47.727Z,98223.72
2023-10-20T08:24:27.415Z,98213.19
2023-10-20T08:27:07.169Z,98215.06
2023-10-20T08:29:56.757Z,98216.28
2023-10-20T08:32:38.200Z,98212.97
2023-10-20T08:35:17.871Z,98209.59
2023-10-20T08:38:08.760Z,98209.91
2023-10-20T08:41:08.129Z,98229.06
2023-10-20T08:43:30.058Z,98224.78
2023-10-20T08:46:11.471Z,98219.84
2023-10-20T08:48:51.345Z,98207.84
2023-10-20T08:51:33.125Z,98207.84
2023-10-20T08:54:23.942Z,98208.44
2023-10-20T08:57:12.037Z,98215.09
2023-10-20T08:59:54.887Z,98213.09
2023-10-20T09:02:41.383Z,98215.16
2023-10-20T09:05:24.593Z,98199.22
2023-10-20T09:08:04.947Z,98192.88
2023-10-20T09:10:47.181Z,98198.03
2023-10-20T09:13:39.415Z,98197.44
2023-10-20T09:16:19.264Z,98207.56
2023-10-20T09:18:58.822Z,98209.25
2023-10-20T09:21:43.519Z,98194.13
2023-10-20T09:24:29.398Z,98200.13
2023-10-20T09:27:10.425Z,98207.38
2023-10-20T09:29:49.421Z,98195.38
2023-10-20T09:32:32.217Z,98198.53
2023-10-20T09:35:12.295Z,98191.91
2023-10-20T09:37:55.790Z,98201.94
2023-10-20T09:40:36.039Z,98203.84
2023-10-20T09:43:30.282Z,98205.00
2023-10-20T09:46:43.124Z,98197.56
2023-10-20T09:49:30.093Z,98195.56
2023-10-20T09:52:12.349Z,98195.75
2023-10-20T09:54:54.343Z,98196.56
2023-10-20T09:57:34.606Z,98200.94
2023-10-20T10:00:14.888Z,98189.94
2023-10-20T10:03:00.752Z,98202.56
2023-10-20T10:05:45.085Z,98193.47
2023-10-20T10:08:23.297Z,98189.53
2023-10-20T10:11:22.379Z,98187.25
2023-10-20T10:14:06.598Z,98183.53
2023-10-20T10:17:00.024Z,98175.03
2023-10-20T10:19:37.315Z,98175.69
2023-10-20T10:22:17.885Z,98163.47
2023-10-20T10:25:02.272Z,98173.00
2023-10-20T10:27:44.107Z,98160.59
2023-10-20T10:30:31.370Z,98163.28
2023-10-20T10:33:14.025Z,98156.44
2023-10-20T10:36:08.691Z,98151.06
2023-10-20T10:38:48.941Z,98150.84
2023-10-20T10:41:29.285Z,98146.31
2023-10-20T10:44:10.088Z,98145.03
2023-10-20T10:46:49.854Z,98141.91
2023-10-20T10:49:29.497Z,98129.06
2023-10-20T10:52:09.270Z,98128.00
2023-10-20T10:54:49.187Z,98126.78
2023-10-20T10:57:30.364Z,98116.97
2023-10-20T11:00:10.301Z,98116.97
2023-10-20T11:02:51.179Z,98108.09
2023-10-20T11:05:32.340Z,98108.69
2023-10-20T11:08:14.416Z,98098.97
2023-10-20T11:10:52.435Z,98087.16
2023-10-20T11:13:34.065Z,98076.78
2023-10-20T11:16:16.388Z,98063.13
2023-10-20T11:18:56.325Z,98067.00
2023-10-20T11:21:53.410Z,98069.25
2023-10-20T11:24:37.621Z,98054.53
2023-10-20T11:27:15.083Z,98055.13
2023-10-20T11:29:58.914Z,98053.84
2023-10-20T11:32:34.502Z,98050.97
2023-10-20T11:35:14.054Z,98032.94
2023-10-20T11:37:55.232Z,98038.91
2023-10-20T11:40:34.630Z,98037.63
2023-10-20T11:43:14.188Z,98024.34
2023-10-20T11:45:54.930Z,98031.13
2023-10-20T11:48:34.625Z,98020.72
2023-10-20T11:51:15.032Z,98019.44
2023-10-20T11:53:54.929Z,98030.59
2023-10-20T11:56:36.308Z,98020.66
2023-10-20T11:59:17.929Z,98017.97
2023-10-20T12:01:57.576Z,98009.66
2023-10-20T12:04:37.458Z,97992.22
2023-10-20T12:07:16.520Z,97989.53
2023-10-20T12:09:58.123Z,97981.84
2023-10-20T12:12:40.924Z,97983.00
2023-10-20T12:15:23.516Z,97987.00
2023-10-20T12:18:03.292Z,97970.44
2023-10-20T12:20:43.190Z,97970.44
2023-10-20T12:23:22.602Z,97973.75
2023-10-20T12:26:04.572Z,97970.03
2023-10-20T12:28:44.238Z,97975.16
2023-10-20T12:31:27.800Z,97961.47
2023-10-20T12:34:07.324Z,97964.53
2023-10-20T12:36:47.518Z,97962.66
2023-10-20T12:39:29.431Z,97981.72
2023-10-20T12:42:09.106Z,97965.81
2023-10-20T12:44:48.824Z,97955.63
2023-10-20T12:47:28.757Z,97955.84
2023-10-20T12:50:09.726Z,97960.66
2023-10-20T12:52:52.297Z,97947.44
2023-10-20T12:58:12.208Z,97950.34
2023-10-20T13:00:51.837Z,97943.91
2023-10-20T13:03:31.861Z,97943.09
2023-10-20T13:06:12.047Z,97944.16
2023-10-20T13:08:52.644Z,97943.31
2023-10-20T13:11:32.258Z,97937.94
2023-10-20T13:14:11.904Z,97937.72
2023-10-20T13:16:52.020Z,97939.34
2023-10-20T13:19:31.750Z,97940.75
2023-10-20T13:22:13.715Z,97936.78
2023-10-20T13:24:54.008Z,97940.28
2023-10-20T13:27:34.516Z,97945.31
2023-10-20T13:30:14.411Z,97941.56
2023-10-20T13:32:54.770Z,97930.44
2023-10-20T13:35:42.326Z,97944.16
2023-10-20T13:38:32.774Z,97959.47
2023-10-20T13:41:01.390Z,97959.91
2023-10-20T13:43:43.064Z,97955.59
2023-10-20T13:46:22.615Z,97953.94
2023-10-20T13:49:02.233Z,97962.25
2023-10-20T13:51:42.126Z,97971.16
2023-10-20T13:54:21.645Z,97972.78
2023-10-20T13:57:02.060Z,97976.88
2023-10-20T13:59:50.133Z,97979.34
2023-10-20T14:02:38.441Z,97990.13
2023-10-20T14:05:20.440Z,97984.38
2023-10-20T14:08:04.854Z,98001.94
2023-10-20T14:10:44.446Z,97998.44
2023-10-20T14:13:24.054Z,98007.94
2023-10-20T14:16:04.803Z,98008.16
2023-10-20T14:18:44.284Z,98018.09
2023-10-20T14:21:24.676Z,98028.66
2023-10-20T14:24:04.548Z,98033.34
2023-10-20T14:26:52.772Z,98032.13
2023-10-20T14:29:41.801Z,98010.41
2023-10-20T14:32:30.160Z,98035.59
2023-10-20T14:35:18.334Z,98025.22
2023-10-20T14:38:07.907Z,98011.97
2023-10-20T14:41:08.465Z,98021.81
2023-10-20T14:43:56.681Z,98019.13
2023-10-20T14:46:36.059Z,98009.13
2023-10-20T14:49:15.687Z,98006.31
2023-10-20T14:51:55.134Z,97992.69
2023-10-20T14:54:34.887Z,97993.44
2023-10-20T14:57:14.352Z,97989.69
2023-10-20T14:59:54.034Z,97992.38
2023-10-20T15:02:33.563Z,97991.31
2023-10-20T15:05:13.079Z,97996.72
2023-10-20T15:07:52.574Z,97995.06
2023-10-20T15:10:32.153Z,97999.19
2023-10-20T15:13:11.734Z,98000.00
2023-10-20T15:15:51.346Z,97994.59
2023-10-20T15:18:31.734Z,97997.06
2023-10-20T15:21:11.571Z,98000.59
2023-10-20T15:23:55.226Z,97999.31
2023-10-20T15:26:34.923Z,98005.31
2023-10-20T15:29:14.594Z,98007.75
2023-10-20T15:31:54.414Z,98002.97
2023-10-20T15:34:33.936Z,98009.97
2023-10-20T15:37:13.570Z,98014.13
2023-10-20T15:40:00.780Z,98013.06
2023-10-20T15:42:33.289Z,98009.56
2023-10-20T15:45:13.111Z,98004.75
2023-10-20T15:47:52.827Z,98010.13
2023-10-20T15:50:34.148Z,98010.13
2023-10-20T15:53:13.521Z,98004.75
2023-10-20T15:55:56.144Z,98002.63
2023-10-20T15:58:36.939Z,98008.03
2023-10-20T16:01:16.643Z,98006.16
2023-10-20T16:03:56.371Z,98004.03
2023-10-20T16:06:35.744Z,98015.41
2023-10-20T16:09:17.523Z,98013.56
2023-10-20T16:11:55.239Z,98016.84
2023-10-20T16:14:34.934Z,98017.19
2023-10-20T16:17:14.512Z,98017.78
2023-10-20T16:19:54.092Z,98015.09
2023-10-20T16:22:33.803Z,98027.31
2023-10-20T16:25:13.539Z,98031.75
2023-10-20T16:27:53.222Z,98035.66
2023-10-20T16:30:32.936Z,98038.22
2023-10-20T16:33:14.413Z,98034.28
2023-10-20T16:35:56.994Z,98040.25
2023-10-20T16:38:36.965Z,98044.13
2023-10-20T16:41:19.214Z,98044.50
2023-10-20T16:43:58.868Z,98033.47
2023-10-20T16:49:21.151Z,98036.66
2023-10-20T16:52:00.682Z,98039.13
2023-10-20T16:54:40.463Z,98046.97
2023-10-20T16:57:21.236Z,98035.47
2023-10-20T17:00:00.988Z,98048.72
2023-10-20T17:02:40.746Z,98048.03
2023-10-20T17:05:20.324Z,98049.44
2023-10-20T17:08:00.294Z,98043.81
2023-10-20T17:10:41.406Z,98050.41
2023-10-20T17:13:21.130Z,98050.25
2023-10-20T17:16:19.483Z,98048.53
2023-10-20T17:19:00.461Z,98061.28
2023-10-20T17:21:40.116Z,98053.34
2023-10-20T17:24:19.226Z,98059.88
2023-10-20T17:26:57.589Z,98063.78
2023-10-20T17:29:37.452Z,98064.13
2023-10-20T17:32:17.394Z,98075.28
2023-10-20T17:34:57.112Z,98067.78
2023-10-20T17:40:17.129Z,98074.09
2023-10-20T17:42:56.739Z,98079.03
2023-10-20T17:45:41.128Z,98085.59
2023-10-20T17:48:20.744Z,98090.50
2023-10-20T17:51:01.927Z,98089.81
2023-10-20T17:53:42.240Z,98091.78
2023-10-20T17:56:21.966Z,98097.56
2023-10-20T17:59:01.677Z,98099.88
2023-10-20T18:01:41.790Z,98105.28
2023-10-20T18:04:21.930Z,98089.47
2023-10-20T18:07:01.755Z,98093.75
2023-10-20T18:09:41.362Z,98095.47
2023-10-20T18:12:26.667Z,98093.25
2023-10-20T18:15:06.834Z,98100.53
2023-10-20T18:17:46.551Z,98098.81
2023-10-20T18:20:26.041Z,98094.63
2023-10-20T18:23:06.591Z,98096.34
2023-10-20T18:25:46.274Z,98102.16
2023-10-20T18:28:25.907Z,98096.59
2023-10-20T18:31:16.843Z,98105.28
2023-10-20T18:33:58.732Z,98104.53
2023-10-20T18:36:38.956Z,98116.28
2023-10-20T18:39:23.357Z,98112.81
2023-10-20T18:42:05.838Z,98109.13
2023-10-20T18:44:45.269Z,98117.00
2023-10-20T18:47:24.816Z,98109.44
2023-10-20T18:50:05.290Z,98117.91
2023-10-20T18:52:44.966Z,98118.47
2023-10-20T18:55:24.778Z,98123.66
2023-10-20T18:58:06.459Z,98127.44
2023-10-20T19:00:46.125Z,98125.47
2023-10-20T19:03:27.886Z,98126.63
2023-10-20T19:06:10.640Z,98128.25
2023-10-20T19:08:49.498Z,98124.16
2023-10-20T19:11:29.167Z,98138.28
2023-10-20T19:14:09.405Z,98133.34
2023-10-20T19:16:49.824Z,98140.66
2023-10-20T19:19:29.527Z,98142.56
2023-10-20T19:22:09.265Z,98147.06
2023-10-20T19:24:49.419Z,98158.22
2023-10-20T19:27:36.654Z,98162.75
2023-10-20T19:30:16.529Z,98175.47
2023-10-20T19:32:56.270Z,98180.06
2023-10-20T19:35:35.785Z,98180.53
2023-10-20T19:38:15.375Z,98178.91
2023-10-20T19:40:55.167Z,98185.88
2023-10-20T19:43:34.798Z,98188.03
2023-10-20T19:46:15.324Z,98193.69
2023-10-20T19:48:55.009Z,98202.38
2023-10-20T19:51:34.730Z,98215.94
2023-10-20T19:54:14.459Z,98213.47
2023-10-20T19:56:54.313Z,98226.66
2023-10-20T19:59:34.416Z,98226.66
2023-10-20T20:02:17.122Z,98229.63
2023-10-20T20:04:56.813Z,98236.66
2023-10-20T20:07:37.349Z,98235.84
2023-10-20T20:10:17.034Z,98246.34
2023-10-20T20:13:05.011Z,98248.25
2023-10-20T20:15:51.907Z,98256.38
2023-10-20T20:18:34.624Z,98256.94
2023-10-20T20:21:14.218Z,98266.97
2023-10-20T20:23:53.996Z,98266.47
2023-10-20T20:26:33.775Z,98268.34
2023-10-20T20:29:14.904Z,98270.00
2023-10-20T20:31:59.896Z,98275.16
2023-10-20T20:34:38.754Z,98277.88
2023-10-20T20:37:18.458Z,98277.88
2023-10-20T20:39:58.510Z,98286.00
2023-10-20T20:42:38.239Z,98284.09
2023-10-20T20:45:18.116Z,98289.53
2023-10-20T20:47:59.052Z,98292.00
2023-10-20T20:50:41.916Z,98291.66
2023-10-20T20:53:21.576Z,98282.13
2023-10-20T20:56:01.310Z,98292.47
2023-10-20T20:58:41.351Z,98287.31
2023-10-20T21:01:21.459Z,98289.94
2023-10-20T21:04:02.237Z,98302.53
2023-10-20T21:06:41.603Z,98303.50
2023-10-20T21:09:24.595Z,98286.34
2023-10-20T21:12:05.733Z,98296.34
2023-10-20T21:14:48.490Z,98306.25
2023-10-20T21:17:28.351Z,98298.03
2023-10-20T21:20:09.930Z,98307.78
2023-10-20T21:22:54.760Z,98309.69
2023-10-20T21:25:40.578Z,98315.91
2023-10-20T21:28:20.297Z,98326.00
2023-10-20T21:31:04.543Z,98323.31
2023-10-20T21:33:44.355Z,98330.03
2023-10-20T21:36:24.059Z,98332.41
2023-10-20T21:39:07.359Z,98329.69
2023-10-20T21:41:46.975Z,98341.22
2023-10-20T21:44:28.888Z,98344.66
2023-10-20T21:47:08.618Z,98338.88
2023-10-20T21:49:48.422Z,98345.09
2023-10-20T21:52:28.492Z,98351.00
2023-10-20T21:55:09.725Z,98357.72
2023-10-20T21:57:49.351Z,98359.03
2023-10-20T22:00:29.178Z,98368.22
2023-10-20T22:03:08.939Z,98364.31
2023-10-20T22:05:48.713Z,98366.69
2023-10-20T22:08:28.763Z,98367.97
2023-10-20T22:11:08.463Z,98367.38
2023-10-20T22:13:55.443Z,98371.63
2023-10-20T22:16:35.110Z,98377.25
2023-10-20T22:19:14.699Z,98375.00
2023-10-20T22:21:54.316Z,98379.25
2023-10-20T22:24:34.059Z,98380.56
2023-10-20T22:27:13.760Z,98378.91
2023-10-20T22:29:53.408Z,98383.13
2023-10-20T22:32:32.969Z,98382.53
2023-10-20T22:35:15.333Z,98380.75
2023-10-20T22:37:55.230Z,98379.72
2023-10-20T22:40:34.887Z,98381.81
2023-10-20T22:43:14.582Z,98396.63
2023-10-20T22:45:56.786Z,98398.53
2023-10-20T22:48:36.376Z,98397.47
2023-10-20T22:51:16.079Z,98404.16
2023-10-20T22:53:55.788Z,98404.41
2023-10-20T22:56:35.405Z,98409.41
2023-10-20T22:59:15.404Z,98412.94
2023-10-20T23:01:55.055Z,98407.53
2023-10-20T23:04:34.702Z,98410.69
2023-10-20T23:07:14.263Z,98408.22
2023-10-20T23:09:53.885Z,98413.41
2023-10-20T23:12:34.663Z,98412.00
2023-10-20T23:15:14.178Z,98425.03
2023-10-20T23:17:54.086Z,98434.19
2023-10-20T23:20:33.609Z,98434.69
2023-10-20T23:23:13.292Z,98446.31
2023-10-20T23:25:52.933Z,98437.63
2023-10-20T23:28:32.566Z,98445.09
2023-10-20T23:31:12.551Z,98441.81
2023-10-20T23:33:52.227Z,98444.16
2023-10-20T23:36:31.807Z,98444.41
2023-10-20T23:39:12.795Z,98436.97
2023-10-20T23:41:52.331Z,98440.97
2023-10-20T23:44:34.373Z,98449.53
2023-10-20T23:47:13.947Z,98456.09
2023-10-20T23:49:53.678Z,98472.06
2023-10-20T23:52:34.024Z,98467.13
2023-10-20T23:55:13.607Z,98469.22
2023-10-20T23:57:53.246Z,98473.34
